APL Jeddah — S6HU4 — position and weather

sailwx.info

Track history (hours):
 
Tides and Currents Weather Stations Pressure Air Temp Water Temp Dewpoint Dewpoint Depression Visibility Wind Speed Wind Dir Waves Ship Positions

APL Jeddah

Last reported at 2017-Dec-16 03:17 UTC. Time now 2017-Dec-16 03:36 UTC.
Position N 35°36' E 139°47'.

Length 207 m; draft 9.6 m.

Type: Cargo ship. MMSI: 563498000.

Date/timePositionNaut miles runAvg speedWind from/ knotsBaromVisibWave heightAir tempDewpointWater temp
2017-Dec-16 03:17N 35°36' E 139°47'0 0.0
2017-Dec-16 02:56N 35°36' E 139°47'0 0.0
2017-Dec-16 02:29N 35°36' E 139°47'0 0.0
2017-Dec-16 01:59N 35°36' E 139°47'0 0.0
2017-Dec-16 01:29N 35°36' E 139°47'0 0.0
2017-Dec-16 00:59N 35°36' E 139°47'0 0.0
2017-Dec-16 00:29N 35°36' E 139°47'0 0.0
2017-Dec-15 23:56N 35°36' E 139°47'0 0.0
2017-Dec-15 23:17N 35°36' E 139°47'0 0.0
2017-Dec-15 22:47N 35°36' E 139°47'0 0.0
2017-Dec-15 22:29N 35°36' E 139°47'0 0.0
2017-Dec-15 21:56N 35°36' E 139°47'0 0.0
2017-Dec-15 21:26N 35°36' E 139°47'0 0.0
2017-Dec-15 20:56N 35°36' E 139°47'0 0.0
2017-Dec-15 20:23N 35°36' E 139°47'0 0.0
2017-Dec-15 19:59N 35°36' E 139°47'0 0.0
2017-Dec-15 19:23N 35°36' E 139°47'0 0.0
2017-Dec-15 18:56N 35°36' E 139°47'0 0.0
2017-Dec-15 18:29N 35°36' E 139°47'0 0.0
2017-Dec-15 17:56N 35°36' E 139°47'0 0.0
2017-Dec-15 17:29N 35°36' E 139°47'0 0.0
2017-Dec-15 16:59N 35°36' E 139°47'0 0.0
2017-Dec-15 16:29N 35°36' E 139°47'0 0.0
2017-Dec-15 15:59N 35°36' E 139°47'0 0.0
2017-Dec-15 15:29N 35°36' E 139°47'0 0.0
2017-Dec-15 14:59N 35°36' E 139°47'0 0.0
2017-Dec-15 14:29N 35°36' E 139°47'0 0.0
2017-Dec-15 13:53N 35°36' E 139°47'0 0.0
2017-Dec-15 13:29N 35°36' E 139°47'0 0.0
2017-Dec-15 12:59N 35°36' E 139°47'0 0.0
2017-Dec-15 12:29N 35°36' E 139°47'0 0.0
2017-Dec-15 11:59N 35°36' E 139°47'0 0.2
2017-Dec-15 11:30N 35°36' E 139°47'3 6.0
2017-Dec-15 11:00N 35°34' E 139°49'510.5
2017-Dec-15 10:30N 35°29' E 139°52'714.9
2017-Dec-15 10:01N 35°24' E 139°46'612.2
2017-Dec-15 09:30N 35°17' E 139°45'612.3
2017-Dec-15 09:00N 35°11' E 139°47'4 8.8
2017-Dec-15 08:30N 35°07' E 139°44'5 9.2
2017-Dec-15 07:58N 35°03' E 139°41'611.7
2017-Dec-15 07:29N 35°00' E 139°35'510.2
2017-Dec-15 06:58N 34°57' E 139°30'8 9.9
2017-Dec-15 06:08N 34°53' E 139°21'211.2
2017-Dec-15 05:56N 34°52' E 139°19'1711.1
2017-Dec-15 04:24N 34°38' E 139°07'410.7
2017-Dec-15 04:00N 34°34' E 139°04'  
2017-Dec-12 13:47N 25°10' E 123°11'415.7
2017-Dec-12 13:30N 25°07' E 123°07'815.5
2017-Dec-12 13:00N 25°02' E 123°01'815.4
2017-Dec-12 12:30N 24°55' E 122°57'815.6
2017-Dec-12 12:00N 24°49' E 122°52'815.6
2017-Dec-12 11:30N 24°42' E 122°47'815.9
2017-Dec-12 11:00N 24°35' E 122°43'816.6
2017-Dec-12 10:30N 24°28' E 122°38'816.5
2017-Dec-12 10:00N 24°21' E 122°33'816.6
2017-Dec-12 09:30N 24°14' E 122°28'917.1
2017-Dec-12 09:00N 24°07' E 122°23'15811.5
2017-Dec-11 19:15N 22°23' E 120°14'414.7
2017-Dec-11 19:00N 22°27' E 120°13'611.7
2017-Dec-11 18:30N 22°33' E 120°15'3 0.4
2017-Dec-11 10:53N 22°33' E 120°19'3 6.6
2017-Dec-11 10:30N 22°32' E 120°16'3 6.7
2017-Dec-11 10:00N 22°31' E 120°13'  
Track history (hours):
 
Tides and Currents Weather Stations Pressure Air Temp Water Temp Dewpoint Dewpoint Depression Visibility Wind Speed Wind Dir Waves Ship Positions

APL Jeddah

Last reported at 2017-Dec-16 03:17 UTC. Time now 2017-Dec-16 03:36 UTC.
Position N 35°36' E 139°47'.

Length 207 m; draft 9.6 m.

Type: Cargo ship. MMSI: 563498000.

Date/timePositionNaut miles runAvg speedWind from/ knotsBaromVisibWave heightAir tempDewpointWater temp
2017-Dec-16 03:17N 35°36' E 139°47'0 0.0
2017-Dec-16 02:56N 35°36' E 139°47'0 0.0
2017-Dec-16 02:29N 35°36' E 139°47'0 0.0
2017-Dec-16 01:59N 35°36' E 139°47'0 0.0
2017-Dec-16 01:29N 35°36' E 139°47'0 0.0
2017-Dec-16 00:59N 35°36' E 139°47'0 0.0
2017-Dec-16 00:29N 35°36' E 139°47'0 0.0
2017-Dec-15 23:56N 35°36' E 139°47'0 0.0
2017-Dec-15 23:17N 35°36' E 139°47'0 0.0
2017-Dec-15 22:47N 35°36' E 139°47'0 0.0
2017-Dec-15 22:29N 35°36' E 139°47'0 0.0
2017-Dec-15 21:56N 35°36' E 139°47'0 0.0
2017-Dec-15 21:26N 35°36' E 139°47'0 0.0
2017-Dec-15 20:56N 35°36' E 139°47'0 0.0
2017-Dec-15 20:23N 35°36' E 139°47'0 0.0
2017-Dec-15 19:59N 35°36' E 139°47'0 0.0
2017-Dec-15 19:23N 35°36' E 139°47'0 0.0
2017-Dec-15 18:56N 35°36' E 139°47'0 0.0
2017-Dec-15 18:29N 35°36' E 139°47'0 0.0
2017-Dec-15 17:56N 35°36' E 139°47'0 0.0
2017-Dec-15 17:29N 35°36' E 139°47'0 0.0
2017-Dec-15 16:59N 35°36' E 139°47'0 0.0
2017-Dec-15 16:29N 35°36' E 139°47'0 0.0
2017-Dec-15 15:59N 35°36' E 139°47'0 0.0
2017-Dec-15 15:29N 35°36' E 139°47'0 0.0
2017-Dec-15 14:59N 35°36' E 139°47'0 0.0
2017-Dec-15 14:29N 35°36' E 139°47'0 0.0
2017-Dec-15 13:53N 35°36' E 139°47'0 0.0
2017-Dec-15 13:29N 35°36' E 139°47'0 0.0
2017-Dec-15 12:59N 35°36' E 139°47'0 0.0
2017-Dec-15 12:29N 35°36' E 139°47'0 0.0
2017-Dec-15 11:59N 35°36' E 139°47'0 0.2
2017-Dec-15 11:30N 35°36' E 139°47'3 6.0
2017-Dec-15 11:00N 35°34' E 139°49'510.5
2017-Dec-15 10:30N 35°29' E 139°52'714.9
2017-Dec-15 10:01N 35°24' E 139°46'612.2
2017-Dec-15 09:30N 35°17' E 139°45'612.3
2017-Dec-15 09:00N 35°11' E 139°47'4 8.8
2017-Dec-15 08:30N 35°07' E 139°44'5 9.2
2017-Dec-15 07:58N 35°03' E 139°41'611.7
2017-Dec-15 07:29N 35°00' E 139°35'510.2
2017-Dec-15 06:58N 34°57' E 139°30'8 9.9
2017-Dec-15 06:08N 34°53' E 139°21'211.2
2017-Dec-15 05:56N 34°52' E 139°19'1711.1
2017-Dec-15 04:24N 34°38' E 139°07'410.7
2017-Dec-15 04:00N 34°34' E 139°04'  
2017-Dec-12 13:47N 25°10' E 123°11'415.7
2017-Dec-12 13:30N 25°07' E 123°07'815.5
2017-Dec-12 13:00N 25°02' E 123°01'815.4
2017-Dec-12 12:30N 24°55' E 122°57'815.6
2017-Dec-12 12:00N 24°49' E 122°52'815.6
2017-Dec-12 11:30N 24°42' E 122°47'815.9
2017-Dec-12 11:00N 24°35' E 122°43'816.6
2017-Dec-12 10:30N 24°28' E 122°38'816.5
2017-Dec-12 10:00N 24°21' E 122°33'816.6
2017-Dec-12 09:30N 24°14' E 122°28'917.1
2017-Dec-12 09:00N 24°07' E 122°23'15811.5
2017-Dec-11 19:15N 22°23' E 120°14'414.7
2017-Dec-11 19:00N 22°27' E 120°13'611.7
2017-Dec-11 18:30N 22°33' E 120°15'3 0.4
2017-Dec-11 10:53N 22°33' E 120°19'3 6.6
2017-Dec-11 10:30N 22°32' E 120°16'3 6.7
2017-Dec-11 10:00N 22°31' E 120°13'  

Dump ship's entire track history